Terminal Aerodrome Forecast
Issued by NWS Grand Forks, ND

Home | Current Version | Previous Version | Graphics & Text | Print | Product List | Glossary Off
Versions: 1 2 3 4 5 6 7 8 9 10 11 12 13

476
FTUS43 KFGF 191720
TAFGFK
TAF
KGFK 191720Z 1918/2018 19013G22KT P6SM BKN250
     FM200000 18009KT P6SM FEW250
     FM201400 17015G23KT P6SM SCT110=

USA.gov is the U.S. government's official web portal to all federal, state and local government web resources and services.